sensor_id;sensor_type;location;lat;lon;timestamp;temperature;humidity
10788;DHT22;5446;50.826;4.380;2022-07-29T00:02:18;19.00;99.90
10788;DHT22;5446;50.826;4.380;2022-07-29T00:04:43;19.00;99.90
10788;DHT22;5446;50.826;4.380;2022-07-29T00:07:09;19.00;99.90
10788;DHT22;5446;50.826;4.380;2022-07-29T00:09:35;19.00;99.90
10788;DHT22;5446;50.826;4.380;2022-07-29T00:12:01;19.00;99.90
10788;DHT22;5446;50.826;4.380;2022-07-29T00:14:27;18.90;99.90
10788;DHT22;5446;50.826;4.380;2022-07-29T00:16:53;18.90;99.90
10788;DHT22;5446;50.826;4.380;2022-07-29T00:19:19;18.90;99.90
10788;DHT22;5446;50.826;4.380;2022-07-29T00:21:45;18.80;99.90
10788;DHT22;5446;50.826;4.380;2022-07-29T00:24:11;18.70;99.90
10788;DHT22;5446;50.826;4.380;2022-07-29T00:26:36;18.70;99.90
10788;DHT22;5446;50.826;4.380;2022-07-29T00:29:03;18.70;99.90
10788;DHT22;5446;50.826;4.380;2022-07-29T00:31:29;18.70;99.90
10788;DHT22;5446;50.826;4.380;2022-07-29T00:33:55;18.70;99.90
10788;DHT22;5446;50.826;4.380;2022-07-29T00:36:21;18.70;99.90
10788;DHT22;5446;50.826;4.380;2022-07-29T00:38:48;18.60;99.90
10788;DHT22;5446;50.826;4.380;2022-07-29T00:41:14;18.60;99.90
10788;DHT22;5446;50.826;4.380;2022-07-29T00:43:40;18.60;99.90
10788;DHT22;5446;50.826;4.380;2022-07-29T00:46:06;18.50;99.90
10788;DHT22;5446;50.826;4.380;2022-07-29T00:48:32;18.50;99.90
10788;DHT22;5446;50.826;4.380;2022-07-29T00:50:58;18.50;99.90
10788;DHT22;5446;50.826;4.380;2022-07-29T00:53:25;18.40;99.90
10788;DHT22;5446;50.826;4.380;2022-07-29T00:55:53;18.40;99.90
10788;DHT22;5446;50.826;4.380;2022-07-29T00:58:20;18.30;99.90
10788;DHT22;5446;50.826;4.380;2022-07-29T01:00:46;18.30;99.90
10788;DHT22;5446;50.826;4.380;2022-07-29T01:03:11;18.20;99.90
10788;DHT22;5446;50.826;4.380;2022-07-29T01:05:38;18.20;99.90
10788;DHT22;5446;50.826;4.380;2022-07-29T01:08:06;18.20;99.90
10788;DHT22;5446;50.826;4.380;2022-07-29T01:10:32;18.20;99.90
10788;DHT22;5446;50.826;4.380;2022-07-29T01:13:01;18.10;99.90
10788;DHT22;5446;50.826;4.380;2022-07-29T01:15:27;18.10;99.90
10788;DHT22;5446;50.826;4.380;2022-07-29T01:31:10;18.00;99.90
10788;DHT22;5446;50.826;4.380;2022-07-29T01:33:41;17.90;99.90
10788;DHT22;5446;50.826;4.380;2022-07-29T01:36:22;17.90;99.90
10788;DHT22;5446;50.826;4.380;2022-07-29T01:38:56;17.90;99.90
10788;DHT22;5446;50.826;4.380;2022-07-29T01:41:23;17.90;99.90
10788;DHT22;5446;50.826;4.380;2022-07-29T01:43:59;17.90;99.90
10788;DHT22;5446;50.826;4.380;2022-07-29T01:46:31;17.80;99.90
10788;DHT22;5446;50.826;4.380;2022-07-29T01:49:24;17.80;99.90
10788;DHT22;5446;50.826;4.380;2022-07-29T01:51:58;17.70;99.90
10788;DHT22;5446;50.826;4.380;2022-07-29T01:54:39;17.70;99.90
10788;DHT22;5446;50.826;4.380;2022-07-29T01:57:09;17.60;99.90
10788;DHT22;5446;50.826;4.380;2022-07-29T01:59:37;17.60;99.90
10788;DHT22;5446;50.826;4.380;2022-07-29T02:02:04;17.60;99.90
10788;DHT22;5446;50.826;4.380;2022-07-29T02:04:33;17.50;99.90
10788;DHT22;5446;50.826;4.380;2022-07-29T02:07:03;17.50;99.90
10788;DHT22;5446;50.826;4.380;2022-07-29T02:09:32;17.40;99.90
10788;DHT22;5446;50.826;4.380;2022-07-29T02:12:00;17.40;99.90
10788;DHT22;5446;50.826;4.380;2022-07-29T02:14:29;17.40;99.90
10788;DHT22;5446;50.826;4.380;2022-07-29T02:16:58;17.40;99.90
10788;DHT22;5446;50.826;4.380;2022-07-29T02:19:26;17.40;99.90
10788;DHT22;5446;50.826;4.380;2022-07-29T02:21:54;17.30;99.90
10788;DHT22;5446;50.826;4.380;2022-07-29T02:24:22;17.30;99.90
10788;DHT22;5446;50.826;4.380;2022-07-29T02:26:50;17.30;99.90
10788;DHT22;5446;50.826;4.380;2022-07-29T02:29:17;17.30;99.90
10788;DHT22;5446;50.826;4.380;2022-07-29T02:31:46;17.30;99.90
10788;DHT22;5446;50.826;4.380;2022-07-29T02:34:13;17.30;99.90
10788;DHT22;5446;50.826;4.380;2022-07-29T02:36:40;17.20;99.90
10788;DHT22;5446;50.826;4.380;2022-07-29T02:39:08;17.20;99.90
10788;DHT22;5446;50.826;4.380;2022-07-29T02:41:44;17.20;99.90
10788;DHT22;5446;50.826;4.380;2022-07-29T02:44:15;17.20;99.90
10788;DHT22;5446;50.826;4.380;2022-07-29T02:47:10;17.10;99.90
10788;DHT22;5446;50.826;4.380;2022-07-29T02:52:24;17.10;99.90
10788;DHT22;5446;50.826;4.380;2022-07-29T02:54:55;17.00;99.90
10788;DHT22;5446;50.826;4.380;2022-07-29T02:57:34;17.00;99.90
10788;DHT22;5446;50.826;4.380;2022-07-29T03:00:06;17.00;99.90
10788;DHT22;5446;50.826;4.380;2022-07-29T03:02:38;17.00;99.90
10788;DHT22;5446;50.826;4.380;2022-07-29T03:05:07;17.00;99.90
10788;DHT22;5446;50.826;4.380;2022-07-29T03:07:34;17.00;99.90
10788;DHT22;5446;50.826;4.380;2022-07-29T03:10:02;17.00;99.90
10788;DHT22;5446;50.826;4.380;2022-07-29T03:12:28;16.90;99.90
10788;DHT22;5446;50.826;4.380;2022-07-29T03:14:56;16.90;99.90
10788;DHT22;5446;50.826;4.380;2022-07-29T03:17:23;16.90;99.90
10788;DHT22;5446;50.826;4.380;2022-07-29T03:19:49;16.90;99.90
10788;DHT22;5446;50.826;4.380;2022-07-29T03:22:15;16.80;99.90
10788;DHT22;5446;50.826;4.380;2022-07-29T03:24:41;16.80;99.90
10788;DHT22;5446;50.826;4.380;2022-07-29T03:27:06;16.80;99.90
10788;DHT22;5446;50.826;4.380;2022-07-29T03:29:32;16.80;99.90
10788;DHT22;5446;50.826;4.380;2022-07-29T03:31:58;16.80;99.90
10788;DHT22;5446;50.826;4.380;2022-07-29T03:34:24;16.70;99.90
10788;DHT22;5446;50.826;4.380;2022-07-29T03:36:49;16.70;99.90
10788;DHT22;5446;50.826;4.380;2022-07-29T03:39:21;16.70;99.90
10788;DHT22;5446;50.826;4.380;2022-07-29T03:41:50;16.70;99.90
10788;DHT22;5446;50.826;4.380;2022-07-29T03:44:17;16.70;99.90
10788;DHT22;5446;50.826;4.380;2022-07-29T03:46:46;16.60;99.90
10788;DHT22;5446;50.826;4.380;2022-07-29T03:49:15;16.60;99.90
10788;DHT22;5446;50.826;4.380;2022-07-29T03:51:41;16.60;99.90
10788;DHT22;5446;50.826;4.380;2022-07-29T03:54:07;16.60;99.90
10788;DHT22;5446;50.826;4.380;2022-07-29T03:56:39;16.60;99.90
10788;DHT22;5446;50.826;4.380;2022-07-29T03:59:05;16.60;99.90
10788;DHT22;5446;50.826;4.380;2022-07-29T04:01:33;16.60;99.90
10788;DHT22;5446;50.826;4.380;2022-07-29T04:04:01;16.50;99.90
10788;DHT22;5446;50.826;4.380;2022-07-29T04:06:27;16.50;99.90
10788;DHT22;5446;50.826;4.380;2022-07-29T04:08:52;16.50;99.90
10788;DHT22;5446;50.826;4.380;2022-07-29T04:11:19;16.50;99.90
10788;DHT22;5446;50.826;4.380;2022-07-29T04:13:44;16.50;99.90
10788;DHT22;5446;50.826;4.380;2022-07-29T04:16:10;16.50;99.90
10788;DHT22;5446;50.826;4.380;2022-07-29T04:18:36;16.50;99.90
10788;DHT22;5446;50.826;4.380;2022-07-29T04:21:01;16.50;99.90
10788;DHT22;5446;50.826;4.380;2022-07-29T04:23:32;16.50;99.90
10788;DHT22;5446;50.826;4.380;2022-07-29T04:26:00;16.50;99.90
10788;DHT22;5446;50.826;4.380;2022-07-29T04:28:26;16.50;99.90
10788;DHT22;5446;50.826;4.380;2022-07-29T04:30:52;16.50;99.90
10788;DHT22;5446;50.826;4.380;2022-07-29T04:33:18;16.50;99.90
10788;DHT22;5446;50.826;4.380;2022-07-29T04:35:43;16.50;99.90
10788;DHT22;5446;50.826;4.380;2022-07-29T04:38:09;16.50;99.90
10788;DHT22;5446;50.826;4.380;2022-07-29T04:40:34;16.50;99.90
10788;DHT22;5446;50.826;4.380;2022-07-29T04:43:00;16.50;99.90
10788;DHT22;5446;50.826;4.380;2022-07-29T04:45:27;16.40;99.90
10788;DHT22;5446;50.826;4.380;2022-07-29T04:47:53;16.40;99.90
10788;DHT22;5446;50.826;4.380;2022-07-29T04:50:19;16.40;99.90
10788;DHT22;5446;50.826;4.380;2022-07-29T04:52:45;16.30;99.90
10788;DHT22;5446;50.826;4.380;2022-07-29T04:55:11;16.30;99.90
10788;DHT22;5446;50.826;4.380;2022-07-29T04:57:37;16.40;99.90
10788;DHT22;5446;50.826;4.380;2022-07-29T05:00:04;16.40;99.90
10788;DHT22;5446;50.826;4.380;2022-07-29T05:02:30;16.40;99.90
10788;DHT22;5446;50.826;4.380;2022-07-29T05:04:55;16.40;99.90
10788;DHT22;5446;50.826;4.380;2022-07-29T05:07:21;16.40;99.90
10788;DHT22;5446;50.826;4.380;2022-07-29T05:09:47;16.40;99.90
10788;DHT22;5446;50.826;4.380;2022-07-29T05:12:13;16.40;99.90
10788;DHT22;5446;50.826;4.380;2022-07-29T05:14:38;16.40;99.90
10788;DHT22;5446;50.826;4.380;2022-07-29T05:17:04;16.40;99.90
10788;DHT22;5446;50.826;4.380;2022-07-29T05:19:30;16.40;99.90
10788;DHT22;5446;50.826;4.380;2022-07-29T05:21:57;16.40;99.90
10788;DHT22;5446;50.826;4.380;2022-07-29T05:24:23;16.40;99.90
10788;DHT22;5446;50.826;4.380;2022-07-29T05:26:48;16.50;99.90
10788;DHT22;5446;50.826;4.380;2022-07-29T05:29:14;16.50;99.90
10788;DHT22;5446;50.826;4.380;2022-07-29T05:31:40;16.60;99.90
10788;DHT22;5446;50.826;4.380;2022-07-29T05:34:05;16.60;99.90
10788;DHT22;5446;50.826;4.380;2022-07-29T05:36:31;16.60;99.90
10788;DHT22;5446;50.826;4.380;2022-07-29T05:38:57;16.70;99.90
10788;DHT22;5446;50.826;4.380;2022-07-29T05:41:23;16.70;99.90
10788;DHT22;5446;50.826;4.380;2022-07-29T05:43:48;16.80;99.90
10788;DHT22;5446;50.826;4.380;2022-07-29T05:46:14;16.70;99.90
10788;DHT22;5446;50.826;4.380;2022-07-29T05:48:40;16.70;99.90
10788;DHT22;5446;50.826;4.380;2022-07-29T05:51:06;16.70;99.90
10788;DHT22;5446;50.826;4.380;2022-07-29T05:53:31;16.80;99.90
10788;DHT22;5446;50.826;4.380;2022-07-29T05:55:57;16.90;99.90
10788;DHT22;5446;50.826;4.380;2022-07-29T05:58:23;16.80;99.90
10788;DHT22;5446;50.826;4.380;2022-07-29T06:00:49;16.70;99.90
10788;DHT22;5446;50.826;4.380;2022-07-29T06:03:15;16.70;99.90
10788;DHT22;5446;50.826;4.380;2022-07-29T06:05:41;16.70;99.90
10788;DHT22;5446;50.826;4.380;2022-07-29T06:08:06;16.80;99.90
10788;DHT22;5446;50.826;4.380;2022-07-29T06:10:34;16.80;99.90
10788;DHT22;5446;50.826;4.380;2022-07-29T06:13:00;16.90;99.90
10788;DHT22;5446;50.826;4.380;2022-07-29T06:15:26;17.00;99.90
10788;DHT22;5446;50.826;4.380;2022-07-29T06:17:52;16.90;99.90
10788;DHT22;5446;50.826;4.380;2022-07-29T06:20:18;17.10;99.90
10788;DHT22;5446;50.826;4.380;2022-07-29T06:22:44;17.10;99.90
10788;DHT22;5446;50.826;4.380;2022-07-29T06:25:09;17.30;99.90
10788;DHT22;5446;50.826;4.380;2022-07-29T06:27:35;17.40;99.90
10788;DHT22;5446;50.826;4.380;2022-07-29T06:30:01;17.40;99.90
10788;DHT22;5446;50.826;4.380;2022-07-29T06:32:28;17.50;99.90
10788;DHT22;5446;50.826;4.380;2022-07-29T06:34:53;17.60;99.90
10788;DHT22;5446;50.826;4.380;2022-07-29T06:37:19;17.60;99.90
10788;DHT22;5446;50.826;4.380;2022-07-29T06:39:45;17.60;99.90
10788;DHT22;5446;50.826;4.380;2022-07-29T06:42:10;17.60;99.90
10788;DHT22;5446;50.826;4.380;2022-07-29T06:44:36;17.70;99.90
10788;DHT22;5446;50.826;4.380;2022-07-29T06:47:02;17.70;99.90
10788;DHT22;5446;50.826;4.380;2022-07-29T06:49:28;17.80;99.90
10788;DHT22;5446;50.826;4.380;2022-07-29T06:51:54;17.90;99.90
10788;DHT22;5446;50.826;4.380;2022-07-29T06:54:20;18.10;99.90
10788;DHT22;5446;50.826;4.380;2022-07-29T06:56:47;18.30;99.90
10788;DHT22;5446;50.826;4.380;2022-07-29T06:59:15;18.50;99.90
10788;DHT22;5446;50.826;4.380;2022-07-29T07:01:43;18.70;99.90
10788;DHT22;5446;50.826;4.380;2022-07-29T07:04:09;18.80;99.90
10788;DHT22;5446;50.826;4.380;2022-07-29T07:06:35;18.90;99.90
10788;DHT22;5446;50.826;4.380;2022-07-29T07:09:01;19.00;99.90
10788;DHT22;5446;50.826;4.380;2022-07-29T07:11:27;19.10;99.90
10788;DHT22;5446;50.826;4.380;2022-07-29T07:13:53;19.20;99.90
10788;DHT22;5446;50.826;4.380;2022-07-29T07:16:19;19.30;99.90
10788;DHT22;5446;50.826;4.380;2022-07-29T07:18:44;19.50;99.90
10788;DHT22;5446;50.826;4.380;2022-07-29T07:21:11;19.40;99.90
10788;DHT22;5446;50.826;4.380;2022-07-29T07:23:36;19.40;99.90
10788;DHT22;5446;50.826;4.380;2022-07-29T07:26:02;19.40;99.90
10788;DHT22;5446;50.826;4.380;2022-07-29T07:28:28;19.40;99.90
10788;DHT22;5446;50.826;4.380;2022-07-29T07:30:54;19.30;99.90
10788;DHT22;5446;50.826;4.380;2022-07-29T07:33:20;19.20;99.90
10788;DHT22;5446;50.826;4.380;2022-07-29T07:35:46;19.10;99.90
10788;DHT22;5446;50.826;4.380;2022-07-29T07:38:12;19.10;99.90
10788;DHT22;5446;50.826;4.380;2022-07-29T07:40:38;19.10;99.90
10788;DHT22;5446;50.826;4.380;2022-07-29T07:43:04;19.20;99.90
10788;DHT22;5446;50.826;4.380;2022-07-29T07:45:29;19.10;99.90
10788;DHT22;5446;50.826;4.380;2022-07-29T07:47:57;19.10;99.90
10788;DHT22;5446;50.826;4.380;2022-07-29T07:50:23;19.20;99.90
10788;DHT22;5446;50.826;4.380;2022-07-29T07:52:52;19.20;99.90
10788;DHT22;5446;50.826;4.380;2022-07-29T07:55:18;19.20;99.90
10788;DHT22;5446;50.826;4.380;2022-07-29T07:57:45;19.20;99.90
10788;DHT22;5446;50.826;4.380;2022-07-29T08:00:12;19.20;99.90
10788;DHT22;5446;50.826;4.380;2022-07-29T08:02:38;19.30;99.90
10788;DHT22;5446;50.826;4.380;2022-07-29T08:05:06;19.40;99.90
10788;DHT22;5446;50.826;4.380;2022-07-29T08:07:32;19.60;99.90
10788;DHT22;5446;50.826;4.380;2022-07-29T08:09:58;19.70;99.90
10788;DHT22;5446;50.826;4.380;2022-07-29T08:12:23;19.80;99.90
10788;DHT22;5446;50.826;4.380;2022-07-29T08:14:49;20.00;99.90
10788;DHT22;5446;50.826;4.380;2022-07-29T08:17:15;20.00;99.90
10788;DHT22;5446;50.826;4.380;2022-07-29T08:19:40;20.00;99.90
10788;DHT22;5446;50.826;4.380;2022-07-29T08:22:06;20.10;99.90
10788;DHT22;5446;50.826;4.380;2022-07-29T08:24:32;20.10;99.90
10788;DHT22;5446;50.826;4.380;2022-07-29T08:27:12;20.20;99.90
10788;DHT22;5446;50.826;4.380;2022-07-29T08:29:39;20.30;99.90
10788;DHT22;5446;50.826;4.380;2022-07-29T08:32:05;20.30;99.90
10788;DHT22;5446;50.826;4.380;2022-07-29T08:34:31;20.50;99.90
10788;DHT22;5446;50.826;4.380;2022-07-29T08:36:57;20.50;99.90
10788;DHT22;5446;50.826;4.380;2022-07-29T08:39:23;20.40;99.90
10788;DHT22;5446;50.826;4.380;2022-07-29T08:41:50;20.50;99.90
10788;DHT22;5446;50.826;4.380;2022-07-29T08:44:19;20.60;99.90
10788;DHT22;5446;50.826;4.380;2022-07-29T08:46:47;20.60;99.90
10788;DHT22;5446;50.826;4.380;2022-07-29T08:49:13;20.60;99.90
10788;DHT22;5446;50.826;4.380;2022-07-29T08:51:40;20.80;99.90
10788;DHT22;5446;50.826;4.380;2022-07-29T08:54:08;20.90;99.90
10788;DHT22;5446;50.826;4.380;2022-07-29T08:56:34;20.90;99.90
10788;DHT22;5446;50.826;4.380;2022-07-29T08:59:04;20.90;99.90
10788;DHT22;5446;50.826;4.380;2022-07-29T09:01:32;21.10;99.90
10788;DHT22;5446;50.826;4.380;2022-07-29T09:03:59;21.20;99.90
10788;DHT22;5446;50.826;4.380;2022-07-29T09:06:31;21.30;99.90
10788;DHT22;5446;50.826;4.380;2022-07-29T09:08:59;21.30;99.90
10788;DHT22;5446;50.826;4.380;2022-07-29T09:11:26;21.40;99.90
10788;DHT22;5446;50.826;4.380;2022-07-29T09:13:51;21.40;99.90
10788;DHT22;5446;50.826;4.380;2022-07-29T09:16:17;21.50;99.90
10788;DHT22;5446;50.826;4.380;2022-07-29T09:18:44;21.50;99.90
10788;DHT22;5446;50.826;4.380;2022-07-29T09:21:13;21.60;99.90
10788;DHT22;5446;50.826;4.380;2022-07-29T09:24:10;21.70;99.90
10788;DHT22;5446;50.826;4.380;2022-07-29T09:26:40;21.70;99.90
10788;DHT22;5446;50.826;4.380;2022-07-29T09:29:13;21.90;99.90
10788;DHT22;5446;50.826;4.380;2022-07-29T09:31:41;21.90;99.90
10788;DHT22;5446;50.826;4.380;2022-07-29T09:34:08;21.90;99.90
10788;DHT22;5446;50.826;4.380;2022-07-29T09:36:48;21.90;99.90
10788;DHT22;5446;50.826;4.380;2022-07-29T09:39:15;21.90;99.90
10788;DHT22;5446;50.826;4.380;2022-07-29T09:42:01;22.00;99.90
10788;DHT22;5446;50.826;4.380;2022-07-29T09:44:44;22.00;99.90
10788;DHT22;5446;50.826;4.380;2022-07-29T09:47:10;22.10;99.90
10788;DHT22;5446;50.826;4.380;2022-07-29T09:49:56;22.30;99.90
10788;DHT22;5446;50.826;4.380;2022-07-29T09:52:29;22.10;99.90
10788;DHT22;5446;50.826;4.380;2022-07-29T09:55:08;22.30;99.90
10788;DHT22;5446;50.826;4.380;2022-07-29T09:57:34;22.50;99.90
10788;DHT22;5446;50.826;4.380;2022-07-29T10:00:03;22.40;99.90
10788;DHT22;5446;50.826;4.380;2022-07-29T10:02:33;22.50;99.90
10788;DHT22;5446;50.826;4.380;2022-07-29T10:05:00;22.40;99.90
10788;DHT22;5446;50.826;4.380;2022-07-29T10:07:27;22.60;99.90
10788;DHT22;5446;50.826;4.380;2022-07-29T10:10:08;22.70;99.90
10788;DHT22;5446;50.826;4.380;2022-07-29T10:12:33;22.80;99.90
10788;DHT22;5446;50.826;4.380;2022-07-29T10:15:01;22.80;99.90
10788;DHT22;5446;50.826;4.380;2022-07-29T10:17:28;22.90;99.90
10788;DHT22;5446;50.826;4.380;2022-07-29T10:19:54;23.00;99.90
10788;DHT22;5446;50.826;4.380;2022-07-29T10:22:21;22.90;99.90
10788;DHT22;5446;50.826;4.380;2022-07-29T10:24:47;23.00;99.90
10788;DHT22;5446;50.826;4.380;2022-07-29T10:27:13;22.90;99.90
10788;DHT22;5446;50.826;4.380;2022-07-29T10:29:39;22.80;99.90
10788;DHT22;5446;50.826;4.380;2022-07-29T10:32:22;22.70;99.90
10788;DHT22;5446;50.826;4.380;2022-07-29T10:35:01;22.80;99.90
10788;DHT22;5446;50.826;4.380;2022-07-29T10:43:27;23.10;99.90
10788;DHT22;5446;50.826;4.380;2022-07-29T10:45:59;23.20;99.90
10788;DHT22;5446;50.826;4.380;2022-07-29T10:48:25;23.40;99.90
10788;DHT22;5446;50.826;4.380;2022-07-29T10:50:56;23.60;99.90
10788;DHT22;5446;50.826;4.380;2022-07-29T10:53:23;23.60;99.90
10788;DHT22;5446;50.826;4.380;2022-07-29T10:55:51;23.60;99.90
10788;DHT22;5446;50.826;4.380;2022-07-29T10:58:17;23.40;99.90
10788;DHT22;5446;50.826;4.380;2022-07-29T11:00:44;23.40;99.90
10788;DHT22;5446;50.826;4.380;2022-07-29T11:03:46;23.50;99.90
10788;DHT22;5446;50.826;4.380;2022-07-29T11:06:12;23.40;99.90
10788;DHT22;5446;50.826;4.380;2022-07-29T11:08:38;23.60;99.90
10788;DHT22;5446;50.826;4.380;2022-07-29T11:11:34;23.60;99.90
10788;DHT22;5446;50.826;4.380;2022-07-29T11:14:01;23.80;99.90
10788;DHT22;5446;50.826;4.380;2022-07-29T11:17:02;24.00;99.90
10788;DHT22;5446;50.826;4.380;2022-07-29T11:19:28;23.90;99.90
10788;DHT22;5446;50.826;4.380;2022-07-29T11:21:54;23.90;99.90
10788;DHT22;5446;50.826;4.380;2022-07-29T11:24:30;23.90;99.90
10788;DHT22;5446;50.826;4.380;2022-07-29T11:29:32;24.00;99.90
10788;DHT22;5446;50.826;4.380;2022-07-29T11:32:14;24.00;99.90
10788;DHT22;5446;50.826;4.380;2022-07-29T11:34:41;24.20;99.90
10788;DHT22;5446;50.826;4.380;2022-07-29T11:39:41;24.50;99.90
10788;DHT22;5446;50.826;4.380;2022-07-29T11:47:21;24.40;99.90
10788;DHT22;5446;50.826;4.380;2022-07-29T11:49:47;24.30;99.90
10788;DHT22;5446;50.826;4.380;2022-07-29T11:52:13;24.10;99.90
10788;DHT22;5446;50.826;4.380;2022-07-29T11:54:42;24.30;99.90
10788;DHT22;5446;50.826;4.380;2022-07-29T11:57:08;24.30;99.90
10788;DHT22;5446;50.826;4.380;2022-07-29T11:59:42;24.50;99.90
10788;DHT22;5446;50.826;4.380;2022-07-29T12:02:08;24.70;99.90
10788;DHT22;5446;50.826;4.380;2022-07-29T12:04:47;24.80;99.90
10788;DHT22;5446;50.826;4.380;2022-07-29T12:07:13;25.00;99.90
10788;DHT22;5446;50.826;4.380;2022-07-29T12:09:39;25.20;99.90
10788;DHT22;5446;50.826;4.380;2022-07-29T12:12:06;25.10;99.90
10788;DHT22;5446;50.826;4.380;2022-07-29T12:14:33;25.10;99.90
10788;DHT22;5446;50.826;4.380;2022-07-29T12:16:59;25.10;99.90
10788;DHT22;5446;50.826;4.380;2022-07-29T12:19:26;25.40;99.90
10788;DHT22;5446;50.826;4.380;2022-07-29T12:21:54;25.20;99.90
10788;DHT22;5446;50.826;4.380;2022-07-29T12:24:20;25.30;99.90
10788;DHT22;5446;50.826;4.380;2022-07-29T12:26:59;25.40;99.90
10788;DHT22;5446;50.826;4.380;2022-07-29T12:29:26;25.40;99.60
10788;DHT22;5446;50.826;4.380;2022-07-29T12:31:53;25.40;99.10
10788;DHT22;5446;50.826;4.380;2022-07-29T12:34:22;25.50;99.60
10788;DHT22;5446;50.826;4.380;2022-07-29T12:36:48;25.50;99.40
10788;DHT22;5446;50.826;4.380;2022-07-29T12:39:16;25.60;99.50
10788;DHT22;5446;50.826;4.380;2022-07-29T12:41:42;25.60;99.10
10788;DHT22;5446;50.826;4.380;2022-07-29T12:44:08;25.50;99.20
10788;DHT22;5446;50.826;4.380;2022-07-29T12:46:34;25.50;99.00
10788;DHT22;5446;50.826;4.380;2022-07-29T12:49:00;25.50;98.00
10788;DHT22;5446;50.826;4.380;2022-07-29T12:51:37;25.40;97.90
10788;DHT22;5446;50.826;4.380;2022-07-29T12:54:06;25.30;98.20
10788;DHT22;5446;50.826;4.380;2022-07-29T12:56:32;25.50;98.20
10788;DHT22;5446;50.826;4.380;2022-07-29T12:58:58;25.70;98.10
10788;DHT22;5446;50.826;4.380;2022-07-29T13:01:24;25.90;97.80
10788;DHT22;5446;50.826;4.380;2022-07-29T13:03:56;26.10;97.40
10788;DHT22;5446;50.826;4.380;2022-07-29T13:09:06;26.20;96.70
10788;DHT22;5446;50.826;4.380;2022-07-29T13:13:58;25.90;96.50
10788;DHT22;5446;50.826;4.380;2022-07-29T13:16:24;25.70;96.80
10788;DHT22;5446;50.826;4.380;2022-07-29T13:19:03;25.80;96.40
10788;DHT22;5446;50.826;4.380;2022-07-29T13:21:29;25.70;96.50
10788;DHT22;5446;50.826;4.380;2022-07-29T13:23:55;25.50;96.00
10788;DHT22;5446;50.826;4.380;2022-07-29T13:26:21;25.20;96.50
10788;DHT22;5446;50.826;4.380;2022-07-29T13:28:46;25.30;96.50
10788;DHT22;5446;50.826;4.380;2022-07-29T13:31:12;25.50;97.10
10788;DHT22;5446;50.826;4.380;2022-07-29T13:33:38;25.50;97.10
10788;DHT22;5446;50.826;4.380;2022-07-29T13:36:03;25.40;96.80
10788;DHT22;5446;50.826;4.380;2022-07-29T13:38:29;25.40;97.10
10788;DHT22;5446;50.826;4.380;2022-07-29T13:40:55;25.80;96.80
10788;DHT22;5446;50.826;4.380;2022-07-29T13:43:20;26.00;96.90
10788;DHT22;5446;50.826;4.380;2022-07-29T13:45:46;26.10;96.00
10788;DHT22;5446;50.826;4.380;2022-07-29T13:48:12;26.10;95.70
10788;DHT22;5446;50.826;4.380;2022-07-29T13:50:37;26.10;95.50
10788;DHT22;5446;50.826;4.380;2022-07-29T13:53:03;26.20;95.40
10788;DHT22;5446;50.826;4.380;2022-07-29T13:55:29;26.20;95.10
10788;DHT22;5446;50.826;4.380;2022-07-29T13:57:55;26.00;94.70
10788;DHT22;5446;50.826;4.380;2022-07-29T14:00:21;25.90;95.00
10788;DHT22;5446;50.826;4.380;2022-07-29T14:02:46;26.10;94.70
10788;DHT22;5446;50.826;4.380;2022-07-29T14:05:12;26.20;94.50
10788;DHT22;5446;50.826;4.380;2022-07-29T14:07:38;26.20;94.40
10788;DHT22;5446;50.826;4.380;2022-07-29T14:10:05;26.10;93.50
10788;DHT22;5446;50.826;4.380;2022-07-29T14:12:31;26.00;93.60
10788;DHT22;5446;50.826;4.380;2022-07-29T14:14:57;26.20;93.20
10788;DHT22;5446;50.826;4.380;2022-07-29T14:17:22;26.10;93.20
10788;DHT22;5446;50.826;4.380;2022-07-29T14:19:48;26.10;92.30
10788;DHT22;5446;50.826;4.380;2022-07-29T14:22:14;25.90;91.60
10788;DHT22;5446;50.826;4.380;2022-07-29T14:24:40;25.90;91.30
10788;DHT22;5446;50.826;4.380;2022-07-29T14:27:07;26.10;91.30
10788;DHT22;5446;50.826;4.380;2022-07-29T14:29:33;26.20;90.90
10788;DHT22;5446;50.826;4.380;2022-07-29T14:31:59;25.80;91.70
10788;DHT22;5446;50.826;4.380;2022-07-29T14:34:25;25.60;92.30
10788;DHT22;5446;50.826;4.380;2022-07-29T14:36:50;25.60;93.50
10788;DHT22;5446;50.826;4.380;2022-07-29T14:39:16;25.50;93.90
10788;DHT22;5446;50.826;4.380;2022-07-29T14:41:42;25.70;93.10
10788;DHT22;5446;50.826;4.380;2022-07-29T14:44:08;25.70;93.10
10788;DHT22;5446;50.826;4.380;2022-07-29T14:46:34;25.70;93.20
10788;DHT22;5446;50.826;4.380;2022-07-29T14:49:00;25.60;92.10
10788;DHT22;5446;50.826;4.380;2022-07-29T14:51:25;25.90;91.50
10788;DHT22;5446;50.826;4.380;2022-07-29T14:53:51;26.20;91.00
10788;DHT22;5446;50.826;4.380;2022-07-29T14:56:17;26.50;91.00
10788;DHT22;5446;50.826;4.380;2022-07-29T14:58:43;26.60;90.60
10788;DHT22;5446;50.826;4.380;2022-07-29T15:01:08;26.50;91.20
10788;DHT22;5446;50.826;4.380;2022-07-29T15:03:34;26.30;91.60
10788;DHT22;5446;50.826;4.380;2022-07-29T15:06:00;26.30;91.30
10788;DHT22;5446;50.826;4.380;2022-07-29T15:08:25;26.40;91.10
10788;DHT22;5446;50.826;4.380;2022-07-29T15:10:53;26.40;91.20
10788;DHT22;5446;50.826;4.380;2022-07-29T15:13:19;26.20;90.90
10788;DHT22;5446;50.826;4.380;2022-07-29T15:15:45;26.00;90.80
10788;DHT22;5446;50.826;4.380;2022-07-29T15:18:10;26.20;90.90
10788;DHT22;5446;50.826;4.380;2022-07-29T15:20:36;26.40;90.40
10788;DHT22;5446;50.826;4.380;2022-07-29T15:23:02;26.50;90.00
10788;DHT22;5446;50.826;4.380;2022-07-29T15:25:28;26.60;89.50
10788;DHT22;5446;50.826;4.380;2022-07-29T15:27:54;26.50;89.40
10788;DHT22;5446;50.826;4.380;2022-07-29T15:30:19;26.30;90.30
10788;DHT22;5446;50.826;4.380;2022-07-29T15:32:45;26.30;89.60
10788;DHT22;5446;50.826;4.380;2022-07-29T15:35:11;26.60;90.00
10788;DHT22;5446;50.826;4.380;2022-07-29T15:37:40;27.00;88.70
10788;DHT22;5446;50.826;4.380;2022-07-29T15:40:06;26.80;88.50
10788;DHT22;5446;50.826;4.380;2022-07-29T15:42:35;26.90;87.90
10788;DHT22;5446;50.826;4.380;2022-07-29T15:45:01;27.00;87.10
10788;DHT22;5446;50.826;4.380;2022-07-29T15:47:28;27.30;87.20
10788;DHT22;5446;50.826;4.380;2022-07-29T15:49:54;27.50;85.40
10788;DHT22;5446;50.826;4.380;2022-07-29T15:52:20;27.80;84.30
10788;DHT22;5446;50.826;4.380;2022-07-29T15:54:46;27.80;82.20
10788;DHT22;5446;50.826;4.380;2022-07-29T15:57:12;27.40;79.30
10788;DHT22;5446;50.826;4.380;2022-07-29T15:59:38;27.50;81.00
10788;DHT22;5446;50.826;4.380;2022-07-29T16:02:04;28.00;79.40
10788;DHT22;5446;50.826;4.380;2022-07-29T16:04:30;28.10;80.10
10788;DHT22;5446;50.826;4.380;2022-07-29T16:06:56;28.30;79.80
10788;DHT22;5446;50.826;4.380;2022-07-29T16:09:22;28.40;79.50
10788;DHT22;5446;50.826;4.380;2022-07-29T16:11:48;28.30;78.10
10788;DHT22;5446;50.826;4.380;2022-07-29T16:14:16;28.50;77.80
10788;DHT22;5446;50.826;4.380;2022-07-29T16:16:42;28.70;77.10
10788;DHT22;5446;50.826;4.380;2022-07-29T16:19:08;28.90;75.60
10788;DHT22;5446;50.826;4.380;2022-07-29T16:21:35;28.90;73.70
10788;DHT22;5446;50.826;4.380;2022-07-29T16:24:02;28.70;72.70
10788;DHT22;5446;50.826;4.380;2022-07-29T16:26:28;29.40;73.40